createdAt,value
2019-01-18T00:00:45.142Z,1.70
2019-01-18T00:02:46.571Z,1.70
2019-01-18T00:04:47.963Z,1.70
2019-01-18T00:06:49.378Z,1.70
2019-01-18T00:08:50.773Z,1.70
2019-01-18T00:10:52.197Z,1.70
2019-01-18T00:12:53.583Z,1.70
2019-01-18T00:14:54.964Z,1.70
2019-01-18T00:16:56.384Z,1.70
2019-01-18T00:18:57.756Z,1.70
2019-01-18T00:20:59.122Z,1.70
2019-01-18T00:23:00.807Z,1.70
2019-01-18T00:25:04.685Z,1.70
2019-01-18T00:27:06.053Z,1.70
2019-01-18T00:29:07.483Z,1.70
2019-01-18T00:31:09.070Z,1.70
2019-01-18T00:33:10.459Z,1.70
2019-01-18T00:35:11.961Z,1.70
2019-01-18T00:37:13.429Z,1.70
2019-01-18T00:39:14.785Z,1.70
2019-01-18T00:41:16.415Z,1.70
2019-01-18T00:43:17.795Z,1.70
2019-01-18T00:45:19.989Z,1.70
2019-01-18T00:47:21.454Z,1.70
2019-01-18T00:49:22.821Z,1.70
2019-01-18T00:51:24.201Z,1.70
2019-01-18T00:53:25.611Z,1.60
2019-01-18T00:55:26.989Z,1.70
2019-01-18T00:57:28.361Z,1.70
2019-01-18T00:59:36.151Z,1.60
2019-01-18T01:01:33.179Z,1.60
2019-01-18T01:03:34.572Z,1.60
2019-01-18T01:05:35.957Z,1.60
2019-01-18T01:07:37.471Z,1.60
2019-01-18T01:09:38.860Z,1.60
2019-01-18T01:11:40.272Z,1.70
2019-01-18T01:13:41.654Z,1.70
2019-01-18T01:15:43.038Z,1.60
2019-01-18T01:17:44.870Z,1.60
2019-01-18T01:19:46.548Z,1.60
2019-01-18T01:21:47.961Z,1.60
2019-01-18T01:23:49.338Z,1.60
2019-01-18T01:25:50.742Z,1.60
2019-01-18T01:27:52.227Z,1.50
2019-01-18T01:29:53.642Z,1.30
2019-01-18T01:31:55.061Z,1.20
2019-01-18T01:33:56.586Z,1.00
2019-01-18T01:35:58.058Z,0.80
2019-01-18T01:37:59.431Z,0.70
2019-01-18T01:40:00.956Z,0.60
2019-01-18T01:42:02.542Z,0.50
2019-01-18T01:44:03.923Z,0.50
2019-01-18T01:46:05.346Z,0.40
2019-01-18T01:48:06.728Z,0.40
2019-01-18T01:50:13.595Z,0.30
2019-01-18T01:52:15.013Z,0.20
2019-01-18T01:54:16.386Z,0.20
2019-01-18T01:56:17.829Z,0.20
2019-01-18T01:58:19.207Z,0.10
2019-01-18T02:00:23.882Z,0.10
2019-01-18T02:02:25.484Z,0.00
2019-01-18T02:04:26.882Z,0.00
2019-01-18T02:06:28.245Z,0.00
2019-01-18T02:08:29.718Z,-0.10
2019-01-18T02:10:31.198Z,-0.10
2019-01-18T02:12:32.579Z,-0.20
2019-01-18T02:14:34.147Z,-0.20
2019-01-18T02:16:35.540Z,-0.20
2019-01-18T02:18:36.933Z,-0.10
2019-01-18T02:20:38.342Z,-0.20
2019-01-18T02:22:39.723Z,-0.20
2019-01-18T02:24:41.198Z,-0.20
2019-01-18T02:26:42.577Z,-0.20
2019-01-18T02:28:43.968Z,-0.20
2019-01-18T02:30:45.375Z,-0.30
2019-01-18T02:32:46.741Z,-0.20
2019-01-18T02:34:48.197Z,-0.20
2019-01-18T02:36:49.700Z,-0.30
2019-01-18T02:38:51.091Z,-0.30
2019-01-18T02:40:52.459Z,-0.20
2019-01-18T02:42:53.882Z,-0.20
2019-01-18T02:44:55.239Z,-0.20
2019-01-18T02:46:56.628Z,-0.30
2019-01-18T02:48:58.642Z,-0.20
2019-01-18T02:51:00.018Z,-0.30
2019-01-18T02:53:01.397Z,-0.30
2019-01-18T02:55:06.118Z,-0.20
2019-01-18T02:57:07.506Z,-0.20
2019-01-18T02:59:08.856Z,-0.30
2019-01-18T03:01:10.266Z,-0.30
2019-01-18T03:03:11.638Z,-0.30
2019-01-18T03:05:16.204Z,-0.30
2019-01-18T03:07:17.655Z,-0.30
2019-01-18T03:09:19.017Z,-0.30
2019-01-18T03:11:20.438Z,-0.40
2019-01-18T03:13:21.842Z,-0.40
2019-01-18T03:15:23.404Z,-0.40
2019-01-18T03:17:24.828Z,-0.40
2019-01-18T03:19:26.207Z,-0.40
2019-01-18T03:21:27.602Z,-0.40
2019-01-18T03:23:29.043Z,-0.40
2019-01-18T03:25:30.530Z,-0.40
2019-01-18T03:27:32.148Z,-0.40
2019-01-18T03:29:33.531Z,-0.40
2019-01-18T03:31:34.908Z,-0.40
2019-01-18T03:33:36.318Z,-0.40
2019-01-18T03:35:37.757Z,-0.40
2019-01-18T03:37:39.279Z,-0.50
2019-01-18T03:39:40.633Z,-0.40
2019-01-18T03:41:42.018Z,-0.40
2019-01-18T03:43:43.530Z,-0.40
2019-01-18T03:45:44.960Z,-0.40
2019-01-18T03:47:46.952Z,-0.40
2019-01-18T03:49:48.362Z,-0.40
2019-01-18T03:51:49.756Z,-0.40
2019-01-18T03:53:51.173Z,-0.40
2019-01-18T03:55:52.614Z,-0.50
2019-01-18T03:57:53.975Z,-0.50
2019-01-18T03:59:55.331Z,-0.50
2019-01-18T04:01:56.742Z,-0.50
2019-01-18T04:03:58.095Z,-0.50
2019-01-18T04:05:59.457Z,-0.50
2019-01-18T04:08:00.861Z,-0.50
2019-01-18T04:10:10.762Z,-0.50
2019-01-18T04:12:12.135Z,-0.50
2019-01-18T04:14:13.513Z,-0.60
2019-01-18T04:16:15.510Z,-0.50
2019-01-18T04:18:16.883Z,-0.50
2019-01-18T04:20:20.150Z,-0.60
2019-01-18T04:22:21.576Z,-0.50
2019-01-18T04:24:22.954Z,-0.50
2019-01-18T04:26:24.332Z,-0.50
2019-01-18T04:28:26.981Z,-0.50
2019-01-18T04:30:33.293Z,-0.50
2019-01-18T04:32:31.874Z,-0.40
2019-01-18T04:34:33.315Z,-0.40
2019-01-18T04:36:34.730Z,-0.50
2019-01-18T04:38:36.149Z,-0.50
2019-01-18T04:40:37.551Z,-0.40
2019-01-18T04:42:38.908Z,-0.40
2019-01-18T04:44:40.320Z,-0.40
2019-01-18T04:46:41.677Z,-0.30
2019-01-18T04:48:43.049Z,-0.40
2019-01-18T04:50:44.455Z,-0.30
2019-01-18T04:52:45.940Z,-0.30
2019-01-18T04:54:47.316Z,-0.30
2019-01-18T04:56:48.700Z,-0.20
2019-01-18T04:58:50.172Z,-0.30
2019-01-18T05:00:51.568Z,-0.20
2019-01-18T05:02:53.057Z,-0.20
2019-01-18T05:04:54.439Z,-0.20
2019-01-18T05:06:55.860Z,-0.20
2019-01-18T05:08:57.251Z,-0.20
2019-01-18T05:10:58.678Z,-0.20
2019-01-18T05:13:00.047Z,-0.20
2019-01-18T05:15:01.636Z,-0.20
2019-01-18T05:17:03.260Z,-0.20
2019-01-18T05:19:04.677Z,-0.10
2019-01-18T05:21:06.100Z,-0.10
2019-01-18T05:23:07.468Z,-0.10
2019-01-18T05:25:11.354Z,-0.10
2019-01-18T05:27:12.765Z,-0.10
2019-01-18T05:29:14.154Z,-0.10
2019-01-18T05:31:15.574Z,-0.10
2019-01-18T05:33:17.041Z,-0.10
2019-01-18T05:35:18.528Z,-0.10
2019-01-18T05:37:19.930Z,-0.10
2019-01-18T05:39:21.310Z,-0.10
2019-01-18T05:41:22.722Z,-0.10
2019-01-18T05:43:24.117Z,-0.10
2019-01-18T05:45:25.512Z,-0.10
2019-01-18T05:47:26.893Z,-0.10
2019-01-18T05:49:28.264Z,-0.20
2019-01-18T05:51:29.888Z,-0.10
2019-01-18T05:53:31.592Z,-0.20
2019-01-18T05:55:33.017Z,-0.20
2019-01-18T05:57:34.654Z,-0.20
2019-01-18T05:59:36.043Z,-0.20
2019-01-18T06:01:37.409Z,-0.20
2019-01-18T06:03:38.811Z,-0.20
2019-01-18T06:05:41.409Z,-0.20
2019-01-18T06:07:42.775Z,-0.30
2019-01-18T06:09:44.392Z,-0.20
2019-01-18T06:11:45.744Z,-0.30
2019-01-18T06:13:47.187Z,-0.30
2019-01-18T06:15:48.607Z,-0.30
2019-01-18T06:17:49.973Z,-0.30
2019-01-18T06:19:51.351Z,-0.30
2019-01-18T06:21:52.763Z,-0.40
2019-01-18T06:23:54.146Z,-0.40
2019-01-18T06:25:55.566Z,-0.40
2019-01-18T06:27:57.050Z,-0.40
2019-01-18T06:29:58.407Z,-0.50
2019-01-18T06:31:59.789Z,-0.50
2019-01-18T06:34:01.205Z,-0.50
2019-01-18T06:36:02.961Z,-0.60
2019-01-18T06:38:04.529Z,-0.70
2019-01-18T06:40:11.458Z,-0.70
2019-01-18T06:42:12.826Z,-0.70
2019-01-18T06:44:14.288Z,-0.70
2019-01-18T06:46:15.698Z,-0.70
2019-01-18T06:48:18.687Z,-0.80
2019-01-18T06:50:20.200Z,-0.80
2019-01-18T06:52:21.602Z,-0.80
2019-01-18T06:54:22.963Z,-0.80
2019-01-18T06:56:24.385Z,-0.90
2019-01-18T06:58:25.773Z,-0.90
2019-01-18T07:00:29.535Z,-0.90
2019-01-18T07:02:30.931Z,-0.90
2019-01-18T07:04:32.371Z,-0.90
2019-01-18T07:06:33.850Z,-0.90
2019-01-18T07:08:35.247Z,-0.90
2019-01-18T07:10:36.642Z,-0.90
2019-01-18T07:12:38.006Z,-0.90
2019-01-18T07:14:39.458Z,-0.90
2019-01-18T07:16:40.864Z,-0.90
2019-01-18T07:18:42.249Z,-0.90
2019-01-18T07:20:43.628Z,-0.90
2019-01-18T07:22:45.546Z,-0.90
2019-01-18T07:24:46.926Z,-0.90
2019-01-18T07:26:48.542Z,-0.90
2019-01-18T07:28:49.897Z,-1.00
2019-01-18T07:30:51.385Z,-1.00
2019-01-18T07:32:52.947Z,-1.00
2019-01-18T07:34:54.322Z,-1.00
2019-01-18T07:36:55.699Z,-1.00
2019-01-18T07:39:00.456Z,-1.10
2019-01-18T07:41:00.385Z,-1.10
2019-01-18T07:43:01.759Z,-1.10
2019-01-18T07:45:14.628Z,-1.10
2019-01-18T07:47:15.998Z,-1.10
2019-01-18T07:49:17.373Z,-1.10
2019-01-18T07:51:18.818Z,-1.10
2019-01-18T07:53:20.187Z,-1.10
2019-01-18T07:55:21.561Z,-1.10
2019-01-18T07:57:22.986Z,-1.10
2019-01-18T07:59:24.363Z,-1.10
2019-01-18T08:01:25.783Z,-1.10
2019-01-18T08:03:27.151Z,-1.00
2019-01-18T08:05:28.816Z,-1.00
2019-01-18T08:07:30.344Z,-1.00
2019-01-18T08:09:31.771Z,-1.00
2019-01-18T08:11:33.178Z,-1.00
2019-01-18T08:13:34.584Z,-1.00
2019-01-18T08:15:36.001Z,-0.90
2019-01-18T08:17:37.382Z,-0.90
2019-01-18T08:19:38.746Z,-0.90
2019-01-18T08:21:40.150Z,-0.90
2019-01-18T08:23:41.565Z,-0.90
2019-01-18T08:25:42.934Z,-0.90
2019-01-18T08:27:44.448Z,-0.80
2019-01-18T08:29:45.855Z,-0.80
2019-01-18T08:31:47.247Z,-0.80
2019-01-18T08:33:48.605Z,-0.80
2019-01-18T08:35:50.010Z,-0.70
2019-01-18T08:37:51.484Z,-0.70
2019-01-18T08:39:52.864Z,-0.70
2019-01-18T08:41:54.259Z,-0.70
2019-01-18T08:43:55.642Z,-0.60
2019-01-18T08:45:57.121Z,-0.60
2019-01-18T08:47:58.551Z,-0.60
2019-01-18T08:49:59.958Z,-0.50
2019-01-18T08:52:01.330Z,-0.50
2019-01-18T08:54:03.103Z,-0.50
2019-01-18T08:56:04.713Z,-0.40
2019-01-18T08:58:06.095Z,-0.30
2019-01-18T09:00:25.882Z,-0.30
2019-01-18T09:02:27.312Z,-0.30
2019-01-18T09:04:28.679Z,-0.30
2019-01-18T09:06:30.102Z,-0.20
2019-01-18T09:08:31.520Z,-0.20
2019-01-18T09:10:35.403Z,-0.10
2019-01-18T09:12:36.797Z,-0.10
2019-01-18T09:14:38.193Z,0.00
2019-01-18T09:16:39.585Z,0.00
2019-01-18T09:18:41.076Z,0.10
2019-01-18T09:20:42.493Z,0.10
2019-01-18T09:22:43.973Z,0.10
2019-01-18T09:24:45.355Z,0.20
2019-01-18T09:26:46.779Z,0.10
2019-01-18T09:28:48.193Z,0.20
2019-01-18T09:30:49.670Z,0.20
2019-01-18T09:32:51.398Z,0.30
2019-01-18T09:34:52.817Z,0.30
2019-01-18T09:36:54.198Z,0.40
2019-01-18T09:38:55.594Z,0.40
2019-01-18T09:40:57.018Z,0.50
2019-01-18T09:42:58.726Z,0.50
2019-01-18T09:45:00.351Z,0.50
2019-01-18T09:47:01.714Z,0.50
2019-01-18T09:49:03.298Z,0.60
2019-01-18T09:51:04.718Z,0.70
2019-01-18T09:53:07.207Z,0.70
2019-01-18T09:55:08.808Z,0.70
2019-01-18T09:57:10.167Z,0.80
2019-01-18T09:59:11.571Z,0.80
2019-01-18T10:01:12.951Z,0.90
2019-01-18T10:03:14.356Z,0.90
2019-01-18T10:05:15.919Z,0.90
2019-01-18T10:07:17.355Z,0.80
2019-01-18T10:09:18.741Z,0.80
2019-01-18T10:11:20.105Z,0.90
2019-01-18T10:13:21.533Z,0.90
2019-01-18T10:15:26.902Z,1.00
2019-01-18T10:17:28.278Z,1.10
2019-01-18T10:19:29.695Z,1.10
2019-01-18T10:21:31.067Z,1.10
2019-01-18T10:23:32.696Z,1.10
2019-01-18T10:25:34.156Z,1.00
2019-01-18T10:27:35.543Z,1.00
2019-01-18T10:29:37.240Z,1.10
2019-01-18T10:31:38.624Z,1.20
2019-01-18T10:33:39.995Z,1.20
2019-01-18T10:35:41.412Z,1.20
2019-01-18T10:37:42.794Z,1.30
2019-01-18T10:39:44.157Z,1.10
2019-01-18T10:41:45.744Z,1.00
2019-01-18T10:43:47.128Z,1.00
2019-01-18T10:45:48.497Z,0.90
2019-01-18T10:47:50.131Z,1.00
2019-01-18T10:49:51.499Z,1.10
2019-01-18T10:51:52.882Z,1.20
2019-01-18T10:53:54.306Z,1.20
2019-01-18T10:55:55.694Z,1.20
2019-01-18T10:57:57.164Z,1.20
2019-01-18T10:59:58.578Z,1.30
2019-01-18T11:02:06.922Z,1.40
2019-01-18T11:04:03.378Z,1.50
2019-01-18T11:06:04.754Z,1.50
2019-01-18T11:08:06.125Z,1.50
2019-01-18T11:10:10.838Z,1.50
2019-01-18T11:12:12.260Z,1.30
2019-01-18T11:14:13.713Z,1.30
2019-01-18T11:16:15.057Z,1.40
2019-01-18T11:18:16.435Z,1.50
2019-01-18T11:20:31.201Z,1.60
2019-01-18T11:22:32.639Z,1.80
2019-01-18T11:24:34.099Z,1.90
2019-01-18T11:26:35.490Z,1.80
2019-01-18T11:28:36.915Z,1.80
2019-01-18T11:30:38.391Z,1.80
2019-01-18T11:32:39.930Z,1.80
2019-01-18T11:34:41.313Z,1.90
2019-01-18T11:36:42.687Z,1.80
2019-01-18T11:38:44.110Z,1.90
2019-01-18T11:40:45.519Z,1.90
2019-01-18T11:42:47.115Z,2.00
2019-01-18T11:44:48.513Z,2.10
2019-01-18T11:46:50.037Z,2.10
2019-01-18T11:48:51.426Z,2.00
2019-01-18T11:50:53.940Z,1.90
2019-01-18T11:52:55.313Z,1.90
2019-01-18T11:54:56.701Z,1.90
2019-01-18T11:56:58.133Z,1.80
2019-01-18T11:58:59.519Z,1.80
2019-01-18T12:01:01.058Z,1.80
2019-01-18T12:03:02.435Z,2.00
2019-01-18T12:05:04.562Z,2.10
2019-01-18T12:07:05.928Z,2.20
2019-01-18T12:09:07.455Z,2.30
2019-01-18T12:11:08.823Z,2.30
2019-01-18T12:13:10.198Z,2.40
2019-01-18T12:15:12.155Z,2.40
2019-01-18T12:17:13.727Z,2.40
2019-01-18T12:19:15.122Z,2.30
2019-01-18T12:21:16.576Z,2.20
2019-01-18T12:23:17.952Z,2.20
2019-01-18T12:25:19.418Z,2.20
2019-01-18T12:27:20.918Z,2.20
2019-01-18T12:29:23.044Z,2.20
2019-01-18T12:31:24.536Z,2.20
2019-01-18T12:33:25.923Z,2.20
2019-01-18T12:35:27.443Z,2.30
2019-01-18T12:37:28.826Z,2.30
2019-01-18T12:39:30.236Z,2.30
2019-01-18T12:41:31.620Z,2.30
2019-01-18T12:43:33.102Z,2.40
2019-01-18T12:45:34.546Z,2.40
2019-01-18T12:47:35.977Z,2.50
2019-01-18T12:49:37.355Z,2.50
2019-01-18T12:51:38.825Z,2.40
2019-01-18T12:53:40.381Z,2.40
2019-01-18T12:55:41.861Z,2.50
2019-01-18T12:57:43.247Z,2.50
2019-01-18T12:59:44.685Z,2.50
2019-01-18T13:01:46.070Z,2.50
2019-01-18T13:03:47.451Z,2.50
2019-01-18T13:05:48.966Z,2.50
2019-01-18T13:07:50.382Z,2.40
2019-01-18T13:09:51.806Z,2.40
2019-01-18T13:11:53.188Z,2.40
2019-01-18T13:13:54.556Z,2.50
2019-01-18T13:16:04.690Z,2.50
2019-01-18T13:18:06.071Z,2.50
2019-01-18T13:20:11.461Z,2.50
2019-01-18T13:22:12.862Z,2.40
2019-01-18T13:24:14.543Z,2.40
2019-01-18T13:26:15.951Z,2.30
2019-01-18T13:28:17.315Z,2.40
2019-01-18T13:30:18.837Z,2.40
2019-01-18T13:32:20.283Z,2.40
2019-01-18T13:34:21.680Z,2.40
2019-01-18T13:36:23.142Z,2.40
2019-01-18T13:38:24.519Z,2.30
2019-01-18T13:40:25.994Z,2.30
2019-01-18T13:42:27.426Z,2.30
2019-01-18T13:44:28.934Z,2.30
2019-01-18T13:46:30.313Z,2.40
2019-01-18T13:48:31.690Z,2.40
2019-01-18T13:50:33.125Z,2.40
2019-01-18T13:52:34.546Z,2.40
2019-01-18T13:54:35.911Z,2.30
2019-01-18T13:56:37.333Z,2.40
2019-01-18T13:58:38.718Z,2.40
2019-01-18T14:00:40.147Z,2.40
2019-01-18T14:02:41.715Z,2.40
2019-01-18T14:04:43.094Z,2.30
2019-01-18T14:06:44.469Z,2.30
2019-01-18T14:08:45.938Z,2.30
2019-01-18T14:10:47.424Z,2.40
2019-01-18T14:12:48.813Z,2.40
2019-01-18T14:14:50.629Z,2.40
2019-01-18T14:16:51.991Z,2.30
2019-01-18T14:18:53.426Z,2.30
2019-01-18T14:20:54.804Z,2.30
2019-01-18T14:22:56.276Z,2.40
2019-01-18T14:24:57.852Z,2.40
2019-01-18T14:26:59.242Z,2.30
2019-01-18T14:29:00.619Z,2.30
2019-01-18T14:31:02.039Z,2.20
2019-01-18T14:33:03.542Z,2.30
2019-01-18T14:35:05.216Z,2.20
2019-01-18T14:37:06.666Z,2.10
2019-01-18T14:39:09.163Z,2.10
2019-01-18T14:41:10.539Z,2.10
2019-01-18T14:43:12.131Z,2.10
2019-01-18T14:45:18.602Z,2.10
2019-01-18T14:47:19.999Z,2.00
2019-01-18T14:49:21.437Z,1.90
2019-01-18T14:51:23.017Z,1.80
2019-01-18T14:53:24.494Z,1.80
2019-01-18T14:55:25.926Z,1.80
2019-01-18T14:57:27.303Z,1.70
2019-01-18T14:59:28.682Z,1.70
2019-01-18T15:01:30.499Z,1.60
2019-01-18T15:03:31.976Z,1.60
2019-01-18T15:05:33.473Z,1.60
2019-01-18T15:07:34.932Z,1.60
2019-01-18T15:09:36.314Z,1.60
2019-01-18T15:11:37.796Z,1.60
2019-01-18T15:13:39.242Z,1.60
2019-01-18T15:15:40.630Z,1.50
2019-01-18T15:17:44.508Z,1.50
2019-01-18T15:19:45.930Z,1.40
2019-01-18T15:21:47.305Z,1.30
2019-01-18T15:23:48.667Z,1.20
2019-01-18T15:25:50.094Z,1.20
2019-01-18T15:27:51.635Z,1.10
2019-01-18T15:29:53.090Z,1.10
2019-01-18T15:31:54.472Z,1.10
2019-01-18T15:33:56.406Z,1.10
2019-01-18T15:35:57.943Z,1.00
2019-01-18T15:37:59.273Z,0.90
2019-01-18T15:40:01.099Z,0.90
2019-01-18T15:42:02.687Z,0.90
2019-01-18T15:44:04.065Z,0.80
2019-01-18T15:46:05.676Z,0.70
2019-01-18T15:48:07.158Z,0.50
2019-01-18T15:50:22.389Z,0.50
2019-01-18T15:52:23.813Z,0.50
2019-01-18T15:54:25.194Z,0.40
2019-01-18T15:56:26.759Z,0.30
2019-01-18T15:58:28.204Z,0.30
2019-01-18T16:00:38.718Z,0.20
2019-01-18T16:02:40.075Z,0.30
2019-01-18T16:04:41.524Z,0.30
2019-01-18T16:06:42.887Z,0.20
2019-01-18T16:08:44.266Z,0.30
2019-01-18T16:10:46.249Z,0.20
2019-01-18T16:12:47.715Z,0.20
2019-01-18T16:14:49.127Z,0.20
2019-01-18T16:16:50.536Z,0.20
2019-01-18T16:18:51.889Z,0.20
2019-01-18T16:20:53.261Z,0.20
2019-01-18T16:22:54.714Z,0.10
2019-01-18T16:24:56.089Z,0.10
2019-01-18T16:26:57.462Z,0.10
2019-01-18T16:28:58.892Z,0.10
2019-01-18T16:31:00.265Z,0.10
2019-01-18T16:33:01.652Z,0.20
2019-01-18T16:35:07.298Z,0.20
2019-01-18T16:37:08.851Z,0.20
2019-01-18T16:39:10.319Z,0.20
2019-01-18T16:41:11.698Z,0.20
2019-01-18T16:43:24.540Z,0.10
2019-01-18T16:45:25.913Z,0.10
2019-01-18T16:47:27.367Z,0.10
2019-01-18T16:49:28.817Z,0.10
2019-01-18T16:51:30.190Z,0.20
2019-01-18T16:53:31.562Z,0.20
2019-01-18T16:55:33.251Z,0.20
2019-01-18T16:57:34.692Z,0.20
2019-01-18T16:59:36.070Z,0.30
2019-01-18T17:01:37.517Z,0.30
2019-01-18T17:03:38.921Z,0.30
2019-01-18T17:05:40.399Z,0.30
2019-01-18T17:07:41.817Z,0.30
2019-01-18T17:09:43.197Z,0.40
2019-01-18T17:11:44.637Z,0.30
2019-01-18T17:13:46.017Z,0.40
2019-01-18T17:15:47.388Z,0.40
2019-01-18T17:17:48.836Z,0.40
2019-01-18T17:19:50.198Z,0.40
2019-01-18T17:21:51.566Z,0.50
2019-01-18T17:23:53.013Z,0.50
2019-01-18T17:25:55.259Z,0.50
2019-01-18T17:27:56.815Z,0.50
2019-01-18T17:29:58.184Z,0.60
2019-01-18T17:31:59.592Z,0.60
2019-01-18T17:34:00.983Z,0.70
2019-01-18T17:36:16.691Z,0.70
2019-01-18T17:38:53.100Z,0.70
2019-01-18T17:41:37.745Z,0.70
2019-01-18T17:44:07.537Z,0.70
2019-01-18T17:46:14.626Z,0.70
2019-01-18T17:48:33.814Z,0.70
2019-01-18T17:50:47.169Z,0.70
2019-01-18T17:53:12.084Z,0.70
2019-01-18T17:55:37.254Z,0.70
2019-01-18T17:57:50.124Z,0.70
2019-01-18T18:00:23.537Z,0.70
2019-01-18T18:02:33.894Z,0.70
2019-01-18T18:05:10.593Z,0.70
2019-01-18T18:07:29.559Z,0.70
2019-01-18T18:09:36.683Z,0.70
2019-01-18T18:11:49.421Z,0.70
2019-01-18T18:14:29.527Z,0.70
2019-01-18T18:16:50.741Z,0.70
2019-01-18T18:19:13.007Z,0.70
2019-01-18T18:21:46.932Z,0.80
2019-01-18T18:24:14.145Z,0.80
2019-01-18T18:26:27.192Z,0.80
2019-01-18T18:29:01.322Z,0.80
2019-01-18T18:31:43.024Z,0.90
2019-01-18T18:33:56.082Z,0.80
2019-01-18T18:36:12.033Z,0.90
2019-01-18T18:38:43.075Z,0.90
2019-01-18T18:41:20.278Z,0.90
2019-01-18T18:43:30.429Z,1.00
2019-01-18T18:45:57.935Z,1.00
2019-01-18T18:48:20.143Z,1.00
2019-01-18T18:50:44.360Z,1.00
2019-01-18T18:53:13.561Z,1.00
2019-01-18T18:55:38.581Z,1.00
2019-01-18T18:57:54.517Z,1.00
2019-01-18T19:00:18.190Z,0.90
2019-01-18T19:02:30.850Z,1.00
2019-01-18T19:04:53.077Z,0.90
2019-01-18T19:07:21.117Z,0.90
2019-01-18T19:09:31.052Z,0.90
2019-01-18T19:11:52.880Z,0.90
2019-01-18T19:14:14.911Z,0.90
2019-01-18T19:16:45.636Z,0.90
2019-01-18T19:19:01.425Z,0.90
2019-01-18T19:21:29.751Z,0.90
2019-01-18T19:23:48.777Z,0.90
2019-01-18T19:26:10.959Z,0.90
2019-01-18T19:28:38.762Z,0.90
2019-01-18T19:31:03.198Z,0.90
2019-01-18T19:33:22.174Z,0.90
2019-01-18T19:35:35.519Z,0.90
2019-01-18T19:38:09.389Z,0.90
2019-01-18T19:40:33.882Z,0.90
2019-01-18T19:43:15.430Z,0.90
2019-01-18T19:45:39.872Z,1.00
2019-01-18T19:47:56.154Z,1.00
2019-01-18T19:50:19.914Z,0.90
2019-01-18T19:52:43.511Z,1.00
2019-01-18T19:55:05.597Z,1.00
2019-01-18T19:57:24.062Z,1.00
2019-01-18T19:59:59.507Z,1.00
2019-01-18T20:02:18.598Z,1.00
2019-01-18T20:04:51.041Z,1.00
2019-01-18T20:07:22.165Z,0.90
2019-01-18T20:09:35.276Z,0.90
2019-01-18T20:11:57.868Z,0.90
2019-01-18T20:14:29.119Z,1.00
2019-01-18T20:17:03.267Z,0.90
2019-01-18T20:19:13.095Z,0.90
2019-01-18T20:21:46.801Z,0.90
2019-01-18T20:24:11.409Z,0.90
2019-01-18T20:26:40.792Z,0.90
2019-01-18T20:29:36.309Z,0.90
2019-01-18T20:32:05.436Z,0.90
2019-01-18T20:34:42.515Z,0.90
2019-01-18T20:36:58.194Z,0.90
2019-01-18T20:39:22.057Z,0.90
2019-01-18T20:41:49.733Z,0.90
2019-01-18T20:43:56.847Z,0.90
2019-01-18T20:46:28.230Z,0.90
2019-01-18T20:49:01.844Z,0.90
2019-01-18T20:51:23.782Z,0.90
2019-01-18T20:53:51.742Z,0.80
2019-01-18T20:56:15.306Z,0.80
2019-01-18T20:58:42.795Z,0.80
2019-01-18T21:01:09.232Z,0.80
2019-01-18T21:03:45.187Z,0.80
2019-01-18T21:05:54.875Z,0.80
2019-01-18T21:08:20.161Z,0.80
2019-01-18T21:10:48.411Z,0.80
2019-01-18T21:13:19.268Z,0.80
2019-01-18T21:16:01.174Z,0.70
2019-01-18T21:18:50.452Z,0.70
2019-01-18T21:21:18.614Z,0.70
2019-01-18T21:23:43.146Z,0.70
2019-01-18T21:25:52.972Z,0.70
2019-01-18T21:28:18.815Z,0.70
2019-01-18T21:30:46.231Z,0.70
2019-01-18T21:33:18.751Z,0.70
2019-01-18T21:35:31.678Z,0.70
2019-01-18T21:37:59.217Z,0.70
2019-01-18T21:40:39.442Z,0.70
2019-01-18T21:42:58.200Z,0.70
2019-01-18T21:45:24.638Z,0.70
2019-01-18T21:47:40.988Z,0.70
2019-01-18T21:49:59.398Z,0.80
2019-01-18T21:52:21.583Z,0.80
2019-01-18T21:54:52.205Z,0.80
2019-01-18T21:57:10.765Z,0.80
2019-01-18T21:59:37.071Z,0.80
2019-01-18T22:01:44.242Z,0.80
2019-01-18T22:04:03.166Z,0.80
2019-01-18T22:06:19.115Z,0.80
2019-01-18T22:08:32.113Z,0.80
2019-01-18T22:10:45.049Z,0.80
2019-01-18T22:12:57.797Z,0.80
2019-01-18T22:15:36.756Z,0.80
2019-01-18T22:17:49.438Z,0.80
2019-01-18T22:20:15.788Z,0.80
2019-01-18T22:22:42.603Z,0.80
2019-01-18T22:25:11.802Z,0.80
2019-01-18T22:27:21.579Z,0.80
2019-01-18T22:29:49.212Z,0.80
2019-01-18T22:32:14.382Z,0.80
2019-01-18T22:34:57.823Z,0.80
2019-01-18T22:37:19.651Z,0.80
2019-01-18T22:39:41.652Z,0.80
2019-01-18T22:42:12.473Z,0.80
2019-01-18T22:44:44.572Z,0.80
2019-01-18T22:47:12.086Z,0.80
2019-01-18T22:49:42.480Z,0.80
2019-01-18T22:52:26.950Z,0.80
2019-01-18T22:54:51.511Z,0.80
2019-01-18T22:57:07.718Z,0.80
2019-01-18T22:59:37.114Z,0.80
2019-01-18T23:01:59.389Z,0.90
2019-01-18T23:04:30.243Z,0.90
2019-01-18T23:06:52.283Z,0.90
2019-01-18T23:09:17.508Z,0.90
2019-01-18T23:11:30.505Z,0.80
2019-01-18T23:13:43.371Z,0.80
2019-01-18T23:16:05.334Z,0.80
2019-01-18T23:18:27.206Z,0.90
2019-01-18T23:20:49.226Z,0.90
2019-01-18T23:23:02.372Z,1.00
2019-01-18T23:25:18.196Z,0.90
2019-01-18T23:27:34.124Z,0.90
2019-01-18T23:30:14.693Z,0.90
2019-01-18T23:32:36.169Z,0.90
2019-01-18T23:34:52.099Z,0.90
2019-01-18T23:37:05.082Z,0.90
2019-01-18T23:39:29.997Z,0.90
2019-01-18T23:42:12.016Z,0.80
2019-01-18T23:44:53.142Z,0.90
2019-01-18T23:47:24.544Z,0.90
2019-01-18T23:49:52.024Z,0.90
2019-01-18T23:52:07.654Z,0.90
2019-01-18T23:54:48.039Z,0.90
2019-01-18T23:57:11.776Z,1.00
2019-01-18T23:59:24.205Z,0.90
